sensor_id;sensor_type;location;lat;lon;timestamp;pressure;altitude;pressure_sealevel;temperature;humidity
12213;BME280;6169;44.158;22.788;2023-04-06T00:00:49;100873.94;;;6.94;43.99
12213;BME280;6169;44.158;22.788;2023-04-06T00:05:53;100880.16;;;6.81;44.08
12213;BME280;6169;44.158;22.788;2023-04-06T00:10:56;100868.69;;;6.59;44.39
12213;BME280;6169;44.158;22.788;2023-04-06T00:15:58;100873.09;;;7.07;43.70
12213;BME280;6169;44.158;22.788;2023-04-06T00:21:02;100867.06;;;7.25;43.58
12213;BME280;6169;44.158;22.788;2023-04-06T00:26:04;100854.41;;;6.85;43.85
12213;BME280;6169;44.158;22.788;2023-04-06T00:31:06;100863.53;;;6.98;42.98
12213;BME280;6169;44.158;22.788;2023-04-06T00:36:10;100844.19;;;6.74;43.41
12213;BME280;6169;44.158;22.788;2023-04-06T00:41:13;100859.50;;;7.47;42.04
12213;BME280;6169;44.158;22.788;2023-04-06T00:46:15;100845.19;;;7.40;42.70
12213;BME280;6169;44.158;22.788;2023-04-06T00:51:19;100838.38;;;6.77;42.94
12213;BME280;6169;44.158;22.788;2023-04-06T00:56:21;100831.53;;;7.08;41.47
12213;BME280;6169;44.158;22.788;2023-04-06T01:01:24;100833.56;;;7.13;41.69
12213;BME280;6169;44.158;22.788;2023-04-06T01:06:28;100831.72;;;6.80;41.71
12213;BME280;6169;44.158;22.788;2023-04-06T01:11:30;100830.28;;;7.04;40.92
12213;BME280;6169;44.158;22.788;2023-04-06T01:16:33;100770.03;;;6.43;41.70
12213;BME280;6169;44.158;22.788;2023-04-06T01:21:37;100820.47;;;6.76;41.40
12213;BME280;6169;44.158;22.788;2023-04-06T01:26:42;100818.22;;;6.93;40.73
12213;BME280;6169;44.158;22.788;2023-04-06T01:31:45;100810.94;;;6.94;41.26
12213;BME280;6169;44.158;22.788;2023-04-06T01:36:47;100801.59;;;6.63;41.64
12213;BME280;6169;44.158;22.788;2023-04-06T01:41:51;100791.19;;;6.47;41.47
12213;BME280;6169;44.158;22.788;2023-04-06T01:46:53;100801.13;;;7.19;40.77
12213;BME280;6169;44.158;22.788;2023-04-06T01:51:56;100791.59;;;6.70;40.47
12213;BME280;6169;44.158;22.788;2023-04-06T01:56:59;100772.88;;;7.08;40.44
12213;BME280;6169;44.158;22.788;2023-04-06T02:02:02;100774.53;;;7.09;39.51
12213;BME280;6169;44.158;22.788;2023-04-06T02:07:04;100787.03;;;6.64;40.66
12213;BME280;6169;44.158;22.788;2023-04-06T02:12:08;100784.50;;;7.09;40.46
12213;BME280;6169;44.158;22.788;2023-04-06T02:17:10;100782.88;;;6.68;40.34
12213;BME280;6169;44.158;22.788;2023-04-06T02:22:12;100771.63;;;6.84;40.11
12213;BME280;6169;44.158;22.788;2023-04-06T02:27:16;100770.44;;;6.60;40.63
12213;BME280;6169;44.158;22.788;2023-04-06T02:32:19;100776.22;;;6.24;41.34
12213;BME280;6169;44.158;22.788;2023-04-06T02:37:21;100783.28;;;6.32;41.72
12213;BME280;6169;44.158;22.788;2023-04-06T02:42:27;100773.53;;;6.24;41.14
12213;BME280;6169;44.158;22.788;2023-04-06T02:47:30;100760.84;;;6.78;40.40
12213;BME280;6169;44.158;22.788;2023-04-06T02:52:32;100790.75;;;6.23;41.07
12213;BME280;6169;44.158;22.788;2023-04-06T02:57:36;100786.59;;;6.94;40.78
12213;BME280;6169;44.158;22.788;2023-04-06T03:02:38;100788.25;;;6.15;41.18
12213;BME280;6169;44.158;22.788;2023-04-06T03:07:40;100771.88;;;6.50;40.41
12213;BME280;6169;44.158;22.788;2023-04-06T03:12:44;100771.03;;;6.69;40.93
12213;BME280;6169;44.158;22.788;2023-04-06T03:17:46;100781.78;;;5.96;42.38
12213;BME280;6169;44.158;22.788;2023-04-06T03:22:49;100770.00;;;6.37;41.58
12213;BME280;6169;44.158;22.788;2023-04-06T03:27:52;100771.41;;;5.99;41.71
12213;BME280;6169;44.158;22.788;2023-04-06T03:32:55;100769.38;;;6.28;41.22
12213;BME280;6169;44.158;22.788;2023-04-06T03:37:57;100765.03;;;6.27;41.02
12213;BME280;6169;44.158;22.788;2023-04-06T03:43:01;100762.13;;;6.55;40.80
12213;BME280;6169;44.158;22.788;2023-04-06T03:48:03;100765.44;;;6.57;40.79
12213;BME280;6169;44.158;22.788;2023-04-06T03:53:05;100765.44;;;6.57;40.98
12213;BME280;6169;44.158;22.788;2023-04-06T03:58:10;100757.09;;;6.99;41.08
12213;BME280;6169;44.158;22.788;2023-04-06T04:03:13;100760.03;;;6.44;41.50
12213;BME280;6169;44.158;22.788;2023-04-06T04:08:15;100755.88;;;6.35;41.49
12213;BME280;6169;44.158;22.788;2023-04-06T04:13:19;100762.50;;;6.72;40.39
12213;BME280;6169;44.158;22.788;2023-04-06T04:18:21;100750.25;;;6.70;40.44
12213;BME280;6169;44.158;22.788;2023-04-06T04:23:23;100754.41;;;6.65;40.84
12213;BME280;6169;44.158;22.788;2023-04-06T04:28:27;100757.75;;;6.28;41.10
12213;BME280;6169;44.158;22.788;2023-04-06T04:33:29;100755.84;;;6.95;40.65
12213;BME280;6169;44.158;22.788;2023-04-06T04:38:31;100754.00;;;6.62;40.67
12213;BME280;6169;44.158;22.788;2023-04-06T04:43:35;100763.75;;;6.89;40.16
12213;BME280;6169;44.158;22.788;2023-04-06T04:48:37;100763.31;;;6.79;40.23
12213;BME280;6169;44.158;22.788;2023-04-06T04:53:40;100758.56;;;6.95;40.89
12213;BME280;6169;44.158;22.788;2023-04-06T04:58:43;100750.03;;;6.05;41.27
12213;BME280;6169;44.158;22.788;2023-04-06T05:03:45;100755.56;;;7.16;39.84
12213;BME280;6169;44.158;22.788;2023-04-06T05:08:48;100763.72;;;7.09;40.01
12213;BME280;6169;44.158;22.788;2023-04-06T05:13:52;100754.19;;;6.80;40.43
12213;BME280;6169;44.158;22.788;2023-04-06T05:18:54;100742.84;;;7.30;39.27
12213;BME280;6169;44.158;22.788;2023-04-06T05:23:57;100747.72;;;7.08;39.91
12213;BME280;6169;44.158;22.788;2023-04-06T05:29:01;100739.19;;;7.04;39.95
12213;BME280;6169;44.158;22.788;2023-04-06T05:34:03;100741.03;;;7.17;39.12
12213;BME280;6169;44.158;22.788;2023-04-06T05:39:05;100727.78;;;8.42;37.34
12213;BME280;6169;44.158;22.788;2023-04-06T05:44:10;100743.06;;;7.73;38.73
12213;BME280;6169;44.158;22.788;2023-04-06T05:49:12;100733.53;;;7.64;37.96
12213;BME280;6169;44.158;22.788;2023-04-06T05:54:14;100733.97;;;8.24;37.73
12213;BME280;6169;44.158;22.788;2023-04-06T05:59:18;100719.59;;;7.67;38.60
12213;BME280;6169;44.158;22.788;2023-04-06T06:04:21;100719.16;;;7.25;38.64
12213;BME280;6169;44.158;22.788;2023-04-06T06:09:23;100717.78;;;7.86;38.40
12213;BME280;6169;44.158;22.788;2023-04-06T06:14:27;100721.00;;;7.31;39.42
12213;BME280;6169;44.158;22.788;2023-04-06T06:19:30;100718.19;;;7.51;37.89
12213;BME280;6169;44.158;22.788;2023-04-06T06:24:33;100715.44;;;7.96;38.42
12213;BME280;6169;44.158;22.788;2023-04-06T06:29:37;100697.91;;;8.31;36.19
12213;BME280;6169;44.158;22.788;2023-04-06T06:34:39;100704.56;;;8.53;36.39
12213;BME280;6169;44.158;22.788;2023-04-06T06:39:41;100719.44;;;8.19;35.07
12213;BME280;6169;44.158;22.788;2023-04-06T06:44:45;100701.44;;;8.75;35.67
12213;BME280;6169;44.158;22.788;2023-04-06T06:49:47;100698.88;;;9.47;34.48
12213;BME280;6169;44.158;22.788;2023-04-06T06:54:49;100713.00;;;8.13;35.34
12213;BME280;6169;44.158;22.788;2023-04-06T06:59:53;100700.63;;;8.74;34.32
12213;BME280;6169;44.158;22.788;2023-04-06T07:04:55;100697.91;;;9.11;33.32
12213;BME280;6169;44.158;22.788;2023-04-06T07:09:58;100690.84;;;8.48;34.61
12213;BME280;6169;44.158;22.788;2023-04-06T07:15:02;100694.66;;;9.21;33.10
12213;BME280;6169;44.158;22.788;2023-04-06T07:20:05;100697.97;;;8.67;33.83
12213;BME280;6169;44.158;22.788;2023-04-06T07:25:08;100676.47;;;9.40;33.31
12213;BME280;6169;44.158;22.788;2023-04-06T07:30:13;100687.56;;;9.50;33.78
12213;BME280;6169;44.158;22.788;2023-04-06T07:35:15;100692.19;;;9.49;34.54
12213;BME280;6169;44.158;22.788;2023-04-06T07:40:17;100678.84;;;9.78;34.00
12213;BME280;6169;44.158;22.788;2023-04-06T07:45:21;100658.47;;;9.87;33.32
12213;BME280;6169;44.158;22.788;2023-04-06T07:50:24;100669.69;;;9.91;31.82
12213;BME280;6169;44.158;22.788;2023-04-06T07:55:26;100667.84;;;10.50;32.14
12213;BME280;6169;44.158;22.788;2023-04-06T08:00:30;100641.63;;;10.20;32.88
12213;BME280;6169;44.158;22.788;2023-04-06T08:05:32;100647.75;;;10.39;33.54
12213;BME280;6169;44.158;22.788;2023-04-06T08:10:34;100663.09;;;10.22;32.33
12213;BME280;6169;44.158;22.788;2023-04-06T08:15:38;100642.41;;;10.91;32.63
12213;BME280;6169;44.158;22.788;2023-04-06T08:20:40;100633.22;;;10.22;32.21
12213;BME280;6169;44.158;22.788;2023-04-06T08:25:43;100626.03;;;11.03;31.50
12213;BME280;6169;44.158;22.788;2023-04-06T08:30:47;100635.56;;;10.77;30.66
12213;BME280;6169;44.158;22.788;2023-04-06T08:35:49;100641.22;;;10.64;30.73
12213;BME280;6169;44.158;22.788;2023-04-06T08:40:52;100657.66;;;11.50;30.90
12213;BME280;6169;44.158;22.788;2023-04-06T08:45:55;100658.41;;;11.05;30.86
12213;BME280;6169;44.158;22.788;2023-04-06T08:50:59;100681.44;;;11.26;29.96
12213;BME280;6169;44.158;22.788;2023-04-06T08:56:03;100671.56;;;11.08;30.58
12213;BME280;6169;44.158;22.788;2023-04-06T09:01:08;100666.09;;;11.20;28.85
12213;BME280;6169;44.158;22.788;2023-04-06T09:06:11;100672.47;;;11.71;29.17
12213;BME280;6169;44.158;22.788;2023-04-06T09:11:15;100664.84;;;10.99;30.14
12213;BME280;6169;44.158;22.788;2023-04-06T09:16:19;100674.06;;;10.98;29.19
12213;BME280;6169;44.158;22.788;2023-04-06T09:21:22;100668.13;;;11.70;29.30
12213;BME280;6169;44.158;22.788;2023-04-06T09:26:24;100653.16;;;12.01;29.32
12213;BME280;6169;44.158;22.788;2023-04-06T09:31:29;100673.63;;;12.37;29.65
12213;BME280;6169;44.158;22.788;2023-04-06T09:36:34;100678.97;;;11.82;28.88
12213;BME280;6169;44.158;22.788;2023-04-06T09:41:39;100670.97;;;11.92;28.18
12213;BME280;6169;44.158;22.788;2023-04-06T09:46:43;100671.47;;;12.06;29.59
12213;BME280;6169;44.158;22.788;2023-04-06T09:51:47;100676.00;;;11.83;28.17
12213;BME280;6169;44.158;22.788;2023-04-06T09:56:55;100664.81;;;13.35;28.93
12213;BME280;6169;44.158;22.788;2023-04-06T10:02:01;100662.63;;;11.82;28.63
12213;BME280;6169;44.158;22.788;2023-04-06T10:07:07;100674.84;;;12.46;28.03
12213;BME280;6169;44.158;22.788;2023-04-06T10:12:10;100665.81;;;12.63;28.11
12213;BME280;6169;44.158;22.788;2023-04-06T10:17:14;100670.00;;;11.98;27.20
12213;BME280;6169;44.158;22.788;2023-04-06T10:22:22;100659.81;;;12.44;28.04
12213;BME280;6169;44.158;22.788;2023-04-06T10:27:29;100662.44;;;12.95;26.67
12213;BME280;6169;44.158;22.788;2023-04-06T10:32:34;100676.59;;;13.13;26.29
12213;BME280;6169;44.158;22.788;2023-04-06T10:37:49;100656.22;;;13.48;26.38
12213;BME280;6169;44.158;22.788;2023-04-06T10:42:52;100665.28;;;12.83;27.32
12213;BME280;6169;44.158;22.788;2023-04-06T10:47:56;100671.84;;;12.48;25.84
12213;BME280;6169;44.158;22.788;2023-04-06T10:52:59;100655.06;;;13.17;26.11
12213;BME280;6169;44.158;22.788;2023-04-06T10:58:01;100647.34;;;12.70;26.25
12213;BME280;6169;44.158;22.788;2023-04-06T11:03:05;100653.28;;;13.55;26.40
12213;BME280;6169;44.158;22.788;2023-04-06T11:08:07;100655.81;;;13.62;25.79
12213;BME280;6169;44.158;22.788;2023-04-06T11:13:10;100652.34;;;12.95;25.11
12213;BME280;6169;44.158;22.788;2023-04-06T11:18:17;100645.03;;;13.77;25.31
12213;BME280;6169;44.158;22.788;2023-04-06T11:23:23;100640.69;;;13.76;25.10
12213;BME280;6169;44.158;22.788;2023-04-06T11:28:26;100633.16;;;13.66;24.38
12213;BME280;6169;44.158;22.788;2023-04-06T11:33:35;100634.25;;;13.65;25.21
12213;BME280;6169;44.158;22.788;2023-04-06T11:38:39;100640.66;;;14.08;24.09
12213;BME280;6169;44.158;22.788;2023-04-06T11:43:47;100631.53;;;13.97;23.41
12213;BME280;6169;44.158;22.788;2023-04-06T11:48:51;100643.66;;;13.47;24.40
12213;BME280;6169;44.158;22.788;2023-04-06T11:53:53;100639.28;;;12.58;24.24
12213;BME280;6169;44.158;22.788;2023-04-06T11:58:57;100643.22;;;13.60;24.27
12213;BME280;6169;44.158;22.788;2023-04-06T12:04:01;100669.25;;;12.75;24.81
12213;BME280;6169;44.158;22.788;2023-04-06T12:09:04;100640.69;;;13.27;24.10
12213;BME280;6169;44.158;22.788;2023-04-06T12:14:06;100646.22;;;13.10;24.30
12213;BME280;6169;44.158;22.788;2023-04-06T12:19:10;100646.19;;;12.83;23.71
12213;BME280;6169;44.158;22.788;2023-04-06T12:24:12;100626.00;;;13.06;24.16
12213;BME280;6169;44.158;22.788;2023-04-06T12:29:15;100649.13;;;13.47;24.53
12213;BME280;6169;44.158;22.788;2023-04-06T12:34:18;100638.31;;;12.86;23.34
12213;BME280;6169;44.158;22.788;2023-04-06T12:39:21;100649.19;;;12.64;23.90
12213;BME280;6169;44.158;22.788;2023-04-06T12:44:23;100634.19;;;12.45;24.70
12213;BME280;6169;44.158;22.788;2023-04-06T12:49:27;100628.66;;;13.23;24.33
12213;BME280;6169;44.158;22.788;2023-04-06T12:54:30;100625.00;;;12.73;23.39
12213;BME280;6169;44.158;22.788;2023-04-06T12:59:32;100635.69;;;12.75;23.13
12213;BME280;6169;44.158;22.788;2023-04-06T13:04:37;100620.56;;;13.33;23.31
12213;BME280;6169;44.158;22.788;2023-04-06T13:09:39;100618.50;;;13.45;22.91
12213;BME280;6169;44.158;22.788;2023-04-06T13:14:41;100610.03;;;14.06;23.83
12213;BME280;6169;44.158;22.788;2023-04-06T13:19:45;100623.13;;;13.18;23.13
12213;BME280;6169;44.158;22.788;2023-04-06T13:24:47;100610.22;;;12.86;23.86
12213;BME280;6169;44.158;22.788;2023-04-06T13:29:50;100602.31;;;13.66;23.55
12213;BME280;6169;44.158;22.788;2023-04-06T13:34:55;100602.84;;;13.35;23.18
12213;BME280;6169;44.158;22.788;2023-04-06T13:39:58;100609.25;;;13.19;23.18
12213;BME280;6169;44.158;22.788;2023-04-06T13:45:00;100610.50;;;13.11;24.25
12213;BME280;6169;44.158;22.788;2023-04-06T13:50:06;100613.22;;;13.38;23.73
12213;BME280;6169;44.158;22.788;2023-04-06T13:55:08;100626.50;;;13.03;23.45
12213;BME280;6169;44.158;22.788;2023-04-06T14:00:12;100649.53;;;12.51;24.11
12213;BME280;6169;44.158;22.788;2023-04-06T14:05:16;100622.38;;;13.22;23.52
12213;BME280;6169;44.158;22.788;2023-04-06T14:10:19;100616.44;;;13.30;22.95
12213;BME280;6169;44.158;22.788;2023-04-06T14:15:24;100625.28;;;12.72;23.40
12213;BME280;6169;44.158;22.788;2023-04-06T14:20:28;100624.94;;;13.34;23.50
12213;BME280;6169;44.158;22.788;2023-04-06T14:25:30;100630.22;;;12.75;24.23
12213;BME280;6169;44.158;22.788;2023-04-06T14:30:34;100635.69;;;12.75;24.37
12213;BME280;6169;44.158;22.788;2023-04-06T14:35:39;100623.41;;;12.16;25.25
12213;BME280;6169;44.158;22.788;2023-04-06T14:40:41;100651.75;;;12.15;24.22
12213;BME280;6169;44.158;22.788;2023-04-06T14:45:44;100658.59;;;12.35;24.73
12213;BME280;6169;44.158;22.788;2023-04-06T14:50:54;100649.09;;;12.59;24.93
12213;BME280;6169;44.158;22.788;2023-04-06T14:55:57;100651.88;;;12.81;25.12
12213;BME280;6169;44.158;22.788;2023-04-06T15:01:00;100648.75;;;12.17;25.61
12213;BME280;6169;44.158;22.788;2023-04-06T15:06:05;100666.00;;;12.06;25.95
12213;BME280;6169;44.158;22.788;2023-04-06T15:11:07;100678.00;;;12.05;24.35
12213;BME280;6169;44.158;22.788;2023-04-06T15:16:09;100678.09;;;12.10;25.59
12213;BME280;6169;44.158;22.788;2023-04-06T15:21:13;100641.81;;;11.18;26.06
12213;BME280;6169;44.158;22.788;2023-04-06T15:26:15;100682.22;;;10.98;25.55
12213;BME280;6169;44.158;22.788;2023-04-06T15:31:20;100692.59;;;11.12;25.12
12213;BME280;6169;44.158;22.788;2023-04-06T15:36:25;100691.66;;;11.07;25.74
12213;BME280;6169;44.158;22.788;2023-04-06T15:41:29;100696.44;;;10.76;25.74
12213;BME280;6169;44.158;22.788;2023-04-06T15:46:31;100704.06;;;11.14;25.41
12213;BME280;6169;44.158;22.788;2023-04-06T15:51:35;100700.56;;;10.55;26.34
12213;BME280;6169;44.158;22.788;2023-04-06T15:56:37;100704.59;;;10.53;26.02
12213;BME280;6169;44.158;22.788;2023-04-06T16:01:40;100713.72;;;10.70;27.27
12213;BME280;6169;44.158;22.788;2023-04-06T16:06:44;100705.81;;;10.68;26.70
12213;BME280;6169;44.158;22.788;2023-04-06T16:11:46;100718.06;;;10.95;26.26
12213;BME280;6169;44.158;22.788;2023-04-06T16:16:48;100732.72;;;10.94;27.37
12213;BME280;6169;44.158;22.788;2023-04-06T16:21:52;100730.38;;;9.96;27.31
12213;BME280;6169;44.158;22.788;2023-04-06T16:26:55;100734.06;;;9.72;27.49
12213;BME280;6169;44.158;22.788;2023-04-06T16:31:58;100740.25;;;9.79;26.78
12213;BME280;6169;44.158;22.788;2023-04-06T16:37:03;100740.59;;;10.13;27.15
12213;BME280;6169;44.158;22.788;2023-04-06T16:42:05;100744.91;;;9.90;28.24
12213;BME280;6169;44.158;22.788;2023-04-06T16:47:07;100698.09;;;9.76;27.92
12213;BME280;6169;44.158;22.788;2023-04-06T16:52:11;100727.53;;;9.91;28.33
12213;BME280;6169;44.158;22.788;2023-04-06T16:57:13;100749.41;;;9.29;28.50
12213;BME280;6169;44.158;22.788;2023-04-06T17:02:16;100753.41;;;9.64;28.57
12213;BME280;6169;44.158;22.788;2023-04-06T17:07:20;100744.69;;;9.25;28.98
12213;BME280;6169;44.158;22.788;2023-04-06T17:12:26;100753.25;;;9.40;28.78
12213;BME280;6169;44.158;22.788;2023-04-06T17:17:28;100747.53;;;9.30;29.25
12213;BME280;6169;44.158;22.788;2023-04-06T17:22:32;100769.28;;;8.86;29.82
12213;BME280;6169;44.158;22.788;2023-04-06T17:27:35;100771.59;;;9.45;29.79
12213;BME280;6169;44.158;22.788;2023-04-06T17:32:37;100775.63;;;9.35;30.21
12213;BME280;6169;44.158;22.788;2023-04-06T17:37:43;100784.69;;;9.48;30.13
12213;BME280;6169;44.158;22.788;2023-04-06T17:42:46;100791.53;;;8.95;31.25
12213;BME280;6169;44.158;22.788;2023-04-06T17:47:49;100794.72;;;9.47;30.69
12213;BME280;6169;44.158;22.788;2023-04-06T17:52:53;100794.25;;;9.32;31.65
12213;BME280;6169;44.158;22.788;2023-04-06T17:57:56;100788.75;;;9.39;31.86
12213;BME280;6169;44.158;22.788;2023-04-06T18:02:59;100802.25;;;9.08;32.09
12213;BME280;6169;44.158;22.788;2023-04-06T18:08:05;100801.03;;;8.79;32.73
12213;BME280;6169;44.158;22.788;2023-04-06T18:13:08;100813.22;;;8.95;32.83
12213;BME280;6169;44.158;22.788;2023-04-06T18:18:12;100812.94;;;9.40;32.16
12213;BME280;6169;44.158;22.788;2023-04-06T18:23:18;100815.00;;;9.45;32.23
12213;BME280;6169;44.158;22.788;2023-04-06T18:28:21;100820.25;;;8.78;32.43
12213;BME280;6169;44.158;22.788;2023-04-06T18:33:23;100823.44;;;8.93;32.33
12213;BME280;6169;44.158;22.788;2023-04-06T18:38:28;100838.88;;;8.93;33.61
12213;BME280;6169;44.158;22.788;2023-04-06T18:43:30;100829.31;;;8.90;33.49
12213;BME280;6169;44.158;22.788;2023-04-06T18:48:34;100831.44;;;8.63;35.19
12213;BME280;6169;44.158;22.788;2023-04-06T18:53:38;100828.59;;;8.76;34.82
12213;BME280;6169;44.158;22.788;2023-04-06T18:58:41;100828.16;;;8.29;35.85
12213;BME280;6169;44.158;22.788;2023-04-06T19:03:45;100828.38;;;8.53;35.29
12213;BME280;6169;44.158;22.788;2023-04-06T19:08:50;100825.88;;;8.19;35.21
12213;BME280;6169;44.158;22.788;2023-04-06T19:13:52;100831.34;;;8.06;35.38
12213;BME280;6169;44.158;22.788;2023-04-06T19:18:55;100823.28;;;7.99;35.48
12213;BME280;6169;44.158;22.788;2023-04-06T19:24:01;100828.41;;;8.14;35.46
12213;BME280;6169;44.158;22.788;2023-04-06T19:29:04;100839.59;;;8.24;35.61
12213;BME280;6169;44.158;22.788;2023-04-06T19:34:07;100835.06;;;8.18;35.44
12213;BME280;6169;44.158;22.788;2023-04-06T19:39:12;100852.13;;;8.57;34.97
12213;BME280;6169;44.158;22.788;2023-04-06T19:44:16;100836.97;;;8.43;35.74
12213;BME280;6169;44.158;22.788;2023-04-06T19:49:19;100838.44;;;8.07;36.29
12213;BME280;6169;44.158;22.788;2023-04-06T19:54:22;100856.09;;;8.16;36.66
12213;BME280;6169;44.158;22.788;2023-04-06T19:59:24;100856.25;;;7.90;36.58
12213;BME280;6169;44.158;22.788;2023-04-06T20:04:27;100848.78;;;8.17;36.28
12213;BME280;6169;44.158;22.788;2023-04-06T20:09:30;100847.38;;;7.63;37.49
12213;BME280;6169;44.158;22.788;2023-04-06T20:14:32;100845.69;;;8.13;37.26
12213;BME280;6169;44.158;22.788;2023-04-06T20:19:36;100847.63;;;8.44;36.07
12213;BME280;6169;44.158;22.788;2023-04-06T20:24:40;100842.13;;;8.51;36.04
12213;BME280;6169;44.158;22.788;2023-04-06T20:29:42;100841.38;;;8.44;36.07
12213;BME280;6169;44.158;22.788;2023-04-06T20:34:45;100834.63;;;8.21;35.96
12213;BME280;6169;44.158;22.788;2023-04-06T20:39:49;100833.84;;;8.71;35.61
12213;BME280;6169;44.158;22.788;2023-04-06T20:44:51;100832.47;;;8.62;36.03
12213;BME280;6169;44.158;22.788;2023-04-06T20:49:54;100833.47;;;8.67;35.77
12213;BME280;6169;44.158;22.788;2023-04-06T20:54:58;100833.53;;;8.61;36.22
12213;BME280;6169;44.158;22.788;2023-04-06T21:00:00;100828.44;;;8.46;36.69
12213;BME280;6169;44.158;22.788;2023-04-06T21:05:03;100824.78;;;8.84;35.30
12213;BME280;6169;44.158;22.788;2023-04-06T21:10:08;100829.81;;;9.05;35.60
12213;BME280;6169;44.158;22.788;2023-04-06T21:15:10;100822.59;;;9.18;35.23
12213;BME280;6169;44.158;22.788;2023-04-06T21:20:12;100821.91;;;8.54;36.86
12213;BME280;6169;44.158;22.788;2023-04-06T21:25:16;100825.50;;;8.48;37.31
12213;BME280;6169;44.158;22.788;2023-04-06T21:30:19;100823.91;;;8.65;36.48
12213;BME280;6169;44.158;22.788;2023-04-06T21:35:21;100823.53;;;8.23;37.14
12213;BME280;6169;44.158;22.788;2023-04-06T21:40:24;100816.72;;;8.52;37.33
12213;BME280;6169;44.158;22.788;2023-04-06T21:45:27;100814.97;;;8.33;37.48
12213;BME280;6169;44.158;22.788;2023-04-06T21:50:29;100821.50;;;8.18;37.56
12213;BME280;6169;44.158;22.788;2023-04-06T21:55:32;100823.31;;;8.63;37.11
12213;BME280;6169;44.158;22.788;2023-04-06T22:00:34;100814.59;;;8.22;38.07
12213;BME280;6169;44.158;22.788;2023-04-06T22:05:36;100814.72;;;8.41;36.98
12213;BME280;6169;44.158;22.788;2023-04-06T22:10:40;100825.78;;;8.01;38.06
12213;BME280;6169;44.158;22.788;2023-04-06T22:15:42;100820.84;;;8.30;37.90
12213;BME280;6169;44.158;22.788;2023-04-06T22:20:45;100812.94;;;7.83;37.82
12213;BME280;6169;44.158;22.788;2023-04-06T22:25:49;100819.69;;;8.44;36.15
12213;BME280;6169;44.158;22.788;2023-04-06T22:30:51;100821.31;;;8.52;36.21
12213;BME280;6169;44.158;22.788;2023-04-06T22:35:53;100811.88;;;8.54;36.31
12213;BME280;6169;44.158;22.788;2023-04-06T22:40:57;100819.81;;;8.24;35.63
12213;BME280;6169;44.158;22.788;2023-04-06T22:45:59;100822.88;;;8.34;35.86
12213;BME280;6169;44.158;22.788;2023-04-06T22:51:01;100811.78;;;8.67;35.65
12213;BME280;6169;44.158;22.788;2023-04-06T22:56:05;100811.06;;;8.54;36.00
12213;BME280;6169;44.158;22.788;2023-04-06T23:01:07;100815.28;;;8.50;36.36
12213;BME280;6169;44.158;22.788;2023-04-06T23:06:09;100820.88;;;8.16;36.63
12213;BME280;6169;44.158;22.788;2023-04-06T23:11:13;100815.66;;;8.21;36.63
12213;BME280;6169;44.158;22.788;2023-04-06T23:16:15;100810.13;;;8.03;37.71
12213;BME280;6169;44.158;22.788;2023-04-06T23:21:17;100808.66;;;8.07;37.54
12213;BME280;6169;44.158;22.788;2023-04-06T23:26:21;100806.97;;;8.13;36.99
12213;BME280;6169;44.158;22.788;2023-04-06T23:31:24;100803.69;;;7.97;37.77
12213;BME280;6169;44.158;22.788;2023-04-06T23:36:26;100798.50;;;8.34;36.92
12213;BME280;6169;44.158;22.788;2023-04-06T23:41:29;100795.31;;;8.12;36.59
12213;BME280;6169;44.158;22.788;2023-04-06T23:46:32;100800.09;;;7.72;37.12
12213;BME280;6169;44.158;22.788;2023-04-06T23:51:34;100809.13;;;7.59;38.14
12213;BME280;6169;44.158;22.788;2023-04-06T23:56:37;100803.13;;;7.50;37.71
